sensor_id;sensor_type;location;lat;lon;timestamp;P1;durP1;ratioP1;P2;durP2;ratioP2
47713;SDS011;33475;46.614;13.888;2023-10-19T00:00:46;11.52;;;8.10;;
47713;SDS011;33475;46.614;13.888;2023-10-19T00:03:17;13.00;;;9.07;;
47713;SDS011;33475;46.614;13.888;2023-10-19T00:05:44;12.88;;;8.15;;
47713;SDS011;33475;46.614;13.888;2023-10-19T00:08:12;18.15;;;8.77;;
47713;SDS011;33475;46.614;13.888;2023-10-19T00:10:52;12.40;;;8.65;;
47713;SDS011;33475;46.614;13.888;2023-10-19T00:13:30;13.13;;;8.20;;
47713;SDS011;33475;46.614;13.888;2023-10-19T00:15:57;12.60;;;9.13;;
47713;SDS011;33475;46.614;13.888;2023-10-19T00:18:24;16.48;;;9.48;;
47713;SDS011;33475;46.614;13.888;2023-10-19T00:20:51;10.98;;;8.38;;
47713;SDS011;33475;46.614;13.888;2023-10-19T00:23:21;13.88;;;8.50;;
47713;SDS011;33475;46.614;13.888;2023-10-19T00:26:00;12.30;;;8.73;;
47713;SDS011;33475;46.614;13.888;2023-10-19T00:28:43;19.17;;;8.63;;
47713;SDS011;33475;46.614;13.888;2023-10-19T00:31:11;9.70;;;8.35;;
47713;SDS011;33475;46.614;13.888;2023-10-19T00:33:38;9.85;;;8.55;;
47713;SDS011;33475;46.614;13.888;2023-10-19T00:36:08;11.10;;;8.20;;
47713;SDS011;33475;46.614;13.888;2023-10-19T00:38:41;10.95;;;7.78;;
47713;SDS011;33475;46.614;13.888;2023-10-19T00:41:20;12.32;;;8.32;;
47713;SDS011;33475;46.614;13.888;2023-10-19T00:43:49;14.48;;;8.73;;
47713;SDS011;33475;46.614;13.888;2023-10-19T00:46:23;21.10;;;9.77;;
47713;SDS011;33475;46.614;13.888;2023-10-19T00:48:58;14.50;;;8.00;;
47713;SDS011;33475;46.614;13.888;2023-10-19T00:51:33;11.52;;;8.38;;
47713;SDS011;33475;46.614;13.888;2023-10-19T00:54:20;11.60;;;8.00;;
47713;SDS011;33475;46.614;13.888;2023-10-19T00:56:52;10.85;;;8.02;;
47713;SDS011;33475;46.614;13.888;2023-10-19T00:59:23;10.80;;;8.77;;
47713;SDS011;33475;46.614;13.888;2023-10-19T01:01:53;15.05;;;9.25;;
47713;SDS011;33475;46.614;13.888;2023-10-19T01:04:24;10.40;;;8.65;;
47713;SDS011;33475;46.614;13.888;2023-10-19T01:06:57;12.60;;;9.27;;
47713;SDS011;33475;46.614;13.888;2023-10-19T01:09:30;10.95;;;8.50;;
47713;SDS011;33475;46.614;13.888;2023-10-19T01:12:05;13.95;;;8.57;;
47713;SDS011;33475;46.614;13.888;2023-10-19T01:17:47;17.38;;;10.43;;
47713;SDS011;33475;46.614;13.888;2023-10-19T01:20:17;12.50;;;9.07;;
47713;SDS011;33475;46.614;13.888;2023-10-19T01:22:53;15.45;;;9.02;;
47713;SDS011;33475;46.614;13.888;2023-10-19T01:28:30;18.02;;;11.70;;
47713;SDS011;33475;46.614;13.888;2023-10-19T01:33:32;12.88;;;8.57;;
47713;SDS011;33475;46.614;13.888;2023-10-19T01:36:01;11.30;;;8.25;;
47713;SDS011;33475;46.614;13.888;2023-10-19T01:38:40;12.95;;;9.40;;
47713;SDS011;33475;46.614;13.888;2023-10-19T01:41:07;19.80;;;12.60;;
47713;SDS011;33475;46.614;13.888;2023-10-19T01:43:43;9.00;;;7.95;;
47713;SDS011;33475;46.614;13.888;2023-10-19T01:46:12;9.27;;;8.13;;
47713;SDS011;33475;46.614;13.888;2023-10-19T01:48:39;12.77;;;9.15;;
47713;SDS011;33475;46.614;13.888;2023-10-19T01:51:08;12.32;;;9.40;;
47713;SDS011;33475;46.614;13.888;2023-10-19T01:53:39;11.63;;;9.70;;
47713;SDS011;33475;46.614;13.888;2023-10-19T01:56:08;11.25;;;8.63;;
47713;SDS011;33475;46.614;13.888;2023-10-19T01:58:44;8.07;;;7.28;;
47713;SDS011;33475;46.614;13.888;2023-10-19T02:01:17;10.50;;;8.80;;
47713;SDS011;33475;46.614;13.888;2023-10-19T02:03:52;10.20;;;8.07;;
47713;SDS011;33475;46.614;13.888;2023-10-19T02:06:30;15.88;;;9.77;;
47713;SDS011;33475;46.614;13.888;2023-10-19T02:09:07;13.18;;;8.90;;
47713;SDS011;33475;46.614;13.888;2023-10-19T02:11:43;9.90;;;8.38;;
47713;SDS011;33475;46.614;13.888;2023-10-19T02:14:11;9.52;;;7.93;;
47713;SDS011;33475;46.614;13.888;2023-10-19T02:16:40;9.55;;;7.75;;
47713;SDS011;33475;46.614;13.888;2023-10-19T02:19:08;10.70;;;8.90;;
47713;SDS011;33475;46.614;13.888;2023-10-19T02:21:34;10.82;;;8.35;;
47713;SDS011;33475;46.614;13.888;2023-10-19T02:24:05;11.90;;;8.27;;
47713;SDS011;33475;46.614;13.888;2023-10-19T02:26:32;9.75;;;8.75;;
47713;SDS011;33475;46.614;13.888;2023-10-19T02:28:59;9.18;;;8.27;;
47713;SDS011;33475;46.614;13.888;2023-10-19T02:31:25;8.98;;;8.07;;
47713;SDS011;33475;46.614;13.888;2023-10-19T02:33:52;10.30;;;9.20;;
47713;SDS011;33475;46.614;13.888;2023-10-19T02:36:25;10.02;;;8.85;;
47713;SDS011;33475;46.614;13.888;2023-10-19T02:39:02;10.25;;;8.68;;
47713;SDS011;33475;46.614;13.888;2023-10-19T02:41:33;10.80;;;9.05;;
47713;SDS011;33475;46.614;13.888;2023-10-19T02:44:00;11.82;;;9.68;;
47713;SDS011;33475;46.614;13.888;2023-10-19T02:46:51;9.70;;;8.80;;
47713;SDS011;33475;46.614;13.888;2023-10-19T02:49:19;11.07;;;9.55;;
47713;SDS011;33475;46.614;13.888;2023-10-19T02:51:46;9.95;;;8.85;;
47713;SDS011;33475;46.614;13.888;2023-10-19T02:54:12;10.88;;;9.70;;
47713;SDS011;33475;46.614;13.888;2023-10-19T02:56:45;12.73;;;10.13;;
47713;SDS011;33475;46.614;13.888;2023-10-19T02:59:18;13.35;;;9.52;;
47713;SDS011;33475;46.614;13.888;2023-10-19T03:01:48;12.45;;;9.23;;
47713;SDS011;33475;46.614;13.888;2023-10-19T03:04:15;10.60;;;9.60;;
47713;SDS011;33475;46.614;13.888;2023-10-19T03:06:42;10.57;;;9.57;;
47713;SDS011;33475;46.614;13.888;2023-10-19T03:09:09;10.05;;;9.13;;
47713;SDS011;33475;46.614;13.888;2023-10-19T03:11:41;9.70;;;8.68;;
47713;SDS011;33475;46.614;13.888;2023-10-19T03:14:09;10.30;;;9.30;;
47713;SDS011;33475;46.614;13.888;2023-10-19T03:16:37;10.43;;;9.43;;
47713;SDS011;33475;46.614;13.888;2023-10-19T03:19:06;11.70;;;9.88;;
47713;SDS011;33475;46.614;13.888;2023-10-19T03:21:33;10.55;;;9.45;;
47713;SDS011;33475;46.614;13.888;2023-10-19T03:24:07;12.38;;;9.73;;
47713;SDS011;33475;46.614;13.888;2023-10-19T03:26:48;10.73;;;9.63;;
47713;SDS011;33475;46.614;13.888;2023-10-19T03:29:14;11.07;;;9.23;;
47713;SDS011;33475;46.614;13.888;2023-10-19T03:31:43;9.50;;;8.57;;
47713;SDS011;33475;46.614;13.888;2023-10-19T03:34:10;11.70;;;9.60;;
47713;SDS011;33475;46.614;13.888;2023-10-19T03:36:38;9.70;;;8.77;;
47713;SDS011;33475;46.614;13.888;2023-10-19T03:39:04;12.23;;;9.05;;
47713;SDS011;33475;46.614;13.888;2023-10-19T03:41:42;9.25;;;8.35;;
47713;SDS011;33475;46.614;13.888;2023-10-19T03:44:12;10.73;;;9.63;;
47713;SDS011;33475;46.614;13.888;2023-10-19T03:46:44;12.23;;;9.77;;
47713;SDS011;33475;46.614;13.888;2023-10-19T03:49:20;12.98;;;9.60;;
47713;SDS011;33475;46.614;13.888;2023-10-19T03:51:47;10.68;;;9.50;;
47713;SDS011;33475;46.614;13.888;2023-10-19T03:54:32;10.93;;;9.52;;
47713;SDS011;33475;46.614;13.888;2023-10-19T03:57:03;9.75;;;8.60;;
47713;SDS011;33475;46.614;13.888;2023-10-19T03:59:39;9.85;;;8.85;;
47713;SDS011;33475;46.614;13.888;2023-10-19T04:02:09;11.95;;;8.90;;
47713;SDS011;33475;46.614;13.888;2023-10-19T04:04:39;9.52;;;8.50;;
47713;SDS011;33475;46.614;13.888;2023-10-19T04:07:09;9.98;;;9.00;;
47713;SDS011;33475;46.614;13.888;2023-10-19T04:09:51;12.85;;;8.68;;
47713;SDS011;33475;46.614;13.888;2023-10-19T04:12:33;9.82;;;8.77;;
47713;SDS011;33475;46.614;13.888;2023-10-19T04:15:03;10.70;;;9.38;;
47713;SDS011;33475;46.614;13.888;2023-10-19T04:17:39;10.30;;;9.30;;
47713;SDS011;33475;46.614;13.888;2023-10-19T04:20:07;13.35;;;8.68;;
47713;SDS011;33475;46.614;13.888;2023-10-19T04:22:43;9.45;;;8.57;;
47713;SDS011;33475;46.614;13.888;2023-10-19T04:25:09;10.50;;;8.93;;
47713;SDS011;33475;46.614;13.888;2023-10-19T04:27:41;12.93;;;9.90;;
47713;SDS011;33475;46.614;13.888;2023-10-19T04:30:08;11.70;;;9.52;;
47713;SDS011;33475;46.614;13.888;2023-10-19T04:32:41;10.02;;;9.00;;
47713;SDS011;33475;46.614;13.888;2023-10-19T04:35:08;9.88;;;8.38;;
47713;SDS011;33475;46.614;13.888;2023-10-19T04:37:35;15.40;;;8.77;;
47713;SDS011;33475;46.614;13.888;2023-10-19T04:40:01;11.05;;;9.80;;
47713;SDS011;33475;46.614;13.888;2023-10-19T04:42:28;18.85;;;9.88;;
47713;SDS011;33475;46.614;13.888;2023-10-19T04:44:54;10.80;;;9.50;;
47713;SDS011;33475;46.614;13.888;2023-10-19T04:47:20;9.77;;;8.88;;
47713;SDS011;33475;46.614;13.888;2023-10-19T04:49:47;9.55;;;8.63;;
47713;SDS011;33475;46.614;13.888;2023-10-19T04:52:13;9.95;;;8.95;;
47713;SDS011;33475;46.614;13.888;2023-10-19T04:54:39;10.38;;;9.30;;
47713;SDS011;33475;46.614;13.888;2023-10-19T04:57:07;10.98;;;9.60;;
47713;SDS011;33475;46.614;13.888;2023-10-19T04:59:33;11.25;;;9.68;;
47713;SDS011;33475;46.614;13.888;2023-10-19T05:01:59;21.10;;;10.20;;
47713;SDS011;33475;46.614;13.888;2023-10-19T05:04:30;26.27;;;12.05;;
47713;SDS011;33475;46.614;13.888;2023-10-19T05:06:56;28.63;;;11.93;;
47713;SDS011;33475;46.614;13.888;2023-10-19T05:09:23;33.65;;;11.93;;
47713;SDS011;33475;46.614;13.888;2023-10-19T05:11:49;31.65;;;11.35;;
47713;SDS011;33475;46.614;13.888;2023-10-19T05:14:17;23.88;;;12.02;;
47713;SDS011;33475;46.614;13.888;2023-10-19T05:16:45;24.75;;;12.20;;
47713;SDS011;33475;46.614;13.888;2023-10-19T05:19:11;30.10;;;11.02;;
47713;SDS011;33475;46.614;13.888;2023-10-19T05:21:38;21.35;;;10.95;;
47713;SDS011;33475;46.614;13.888;2023-10-19T05:24:04;15.82;;;12.30;;
47713;SDS011;33475;46.614;13.888;2023-10-19T05:26:33;15.40;;;10.88;;
47713;SDS011;33475;46.614;13.888;2023-10-19T05:28:59;30.33;;;21.17;;
47713;SDS011;33475;46.614;13.888;2023-10-19T05:31:26;20.05;;;16.55;;
47713;SDS011;33475;46.614;13.888;2023-10-19T05:33:53;14.77;;;11.90;;
47713;SDS011;33475;46.614;13.888;2023-10-19T05:36:19;14.80;;;11.98;;
47713;SDS011;33475;46.614;13.888;2023-10-19T05:38:45;13.25;;;11.30;;
47713;SDS011;33475;46.614;13.888;2023-10-19T05:41:12;15.15;;;11.00;;
47713;SDS011;33475;46.614;13.888;2023-10-19T05:43:38;15.00;;;9.90;;
47713;SDS011;33475;46.614;13.888;2023-10-19T05:46:04;15.45;;;12.38;;
47713;SDS011;33475;46.614;13.888;2023-10-19T05:48:31;16.05;;;12.18;;
47713;SDS011;33475;46.614;13.888;2023-10-19T05:50:57;14.13;;;12.57;;
47713;SDS011;33475;46.614;13.888;2023-10-19T05:53:23;10.45;;;9.35;;
47713;SDS011;33475;46.614;13.888;2023-10-19T05:55:50;16.65;;;12.23;;
47713;SDS011;33475;46.614;13.888;2023-10-19T05:58:16;21.00;;;15.82;;
47713;SDS011;33475;46.614;13.888;2023-10-19T06:00:42;15.48;;;12.68;;
47713;SDS011;33475;46.614;13.888;2023-10-19T06:03:08;10.00;;;8.88;;
47713;SDS011;33475;46.614;13.888;2023-10-19T06:05:35;9.75;;;8.55;;
47713;SDS011;33475;46.614;13.888;2023-10-19T06:08:01;13.60;;;10.60;;
47713;SDS011;33475;46.614;13.888;2023-10-19T06:10:27;10.88;;;9.77;;
47713;SDS011;33475;46.614;13.888;2023-10-19T06:12:54;10.02;;;8.75;;
47713;SDS011;33475;46.614;13.888;2023-10-19T06:15:21;12.73;;;10.02;;
47713;SDS011;33475;46.614;13.888;2023-10-19T06:17:50;17.20;;;14.25;;
47713;SDS011;33475;46.614;13.888;2023-10-19T06:20:17;11.18;;;9.48;;
47713;SDS011;33475;46.614;13.888;2023-10-19T06:22:52;21.45;;;14.88;;
47713;SDS011;33475;46.614;13.888;2023-10-19T06:25:21;16.02;;;14.32;;
47713;SDS011;33475;46.614;13.888;2023-10-19T06:27:48;17.90;;;11.07;;
47713;SDS011;33475;46.614;13.888;2023-10-19T06:30:15;13.48;;;10.25;;
47713;SDS011;33475;46.614;13.888;2023-10-19T06:32:50;11.43;;;10.15;;
47713;SDS011;33475;46.614;13.888;2023-10-19T06:35:17;14.95;;;9.88;;
47713;SDS011;33475;46.614;13.888;2023-10-19T06:37:43;13.05;;;10.90;;
47713;SDS011;33475;46.614;13.888;2023-10-19T06:40:10;15.55;;;13.40;;
47713;SDS011;33475;46.614;13.888;2023-10-19T06:42:37;13.30;;;11.20;;
47713;SDS011;33475;46.614;13.888;2023-10-19T06:45:04;19.83;;;13.95;;
47713;SDS011;33475;46.614;13.888;2023-10-19T06:47:32;10.65;;;9.40;;
47713;SDS011;33475;46.614;13.888;2023-10-19T06:50:03;14.30;;;11.93;;
47713;SDS011;33475;46.614;13.888;2023-10-19T06:52:32;12.25;;;8.05;;
47713;SDS011;33475;46.614;13.888;2023-10-19T06:54:59;12.93;;;11.50;;
47713;SDS011;33475;46.614;13.888;2023-10-19T06:57:25;9.88;;;8.13;;
47713;SDS011;33475;46.614;13.888;2023-10-19T06:59:52;9.10;;;8.20;;
47713;SDS011;33475;46.614;13.888;2023-10-19T07:02:18;8.40;;;7.60;;
47713;SDS011;33475;46.614;13.888;2023-10-19T07:04:45;10.00;;;8.90;;
47713;SDS011;33475;46.614;13.888;2023-10-19T07:07:12;9.38;;;7.97;;
47713;SDS011;33475;46.614;13.888;2023-10-19T07:09:39;10.27;;;8.15;;
47713;SDS011;33475;46.614;13.888;2023-10-19T07:12:07;9.40;;;8.40;;
47713;SDS011;33475;46.614;13.888;2023-10-19T07:14:33;12.07;;;8.10;;
47713;SDS011;33475;46.614;13.888;2023-10-19T07:16:59;8.15;;;6.68;;
47713;SDS011;33475;46.614;13.888;2023-10-19T07:19:26;11.02;;;7.75;;
47713;SDS011;33475;46.614;13.888;2023-10-19T07:21:54;13.23;;;10.80;;
47713;SDS011;33475;46.614;13.888;2023-10-19T07:24:25;10.15;;;8.13;;
47713;SDS011;33475;46.614;13.888;2023-10-19T07:26:52;8.95;;;8.15;;
47713;SDS011;33475;46.614;13.888;2023-10-19T07:29:31;9.00;;;8.15;;
47713;SDS011;33475;46.614;13.888;2023-10-19T07:31:58;13.52;;;11.95;;
47713;SDS011;33475;46.614;13.888;2023-10-19T07:34:24;18.50;;;13.25;;
47713;SDS011;33475;46.614;13.888;2023-10-19T07:36:54;14.23;;;9.25;;
47713;SDS011;33475;46.614;13.888;2023-10-19T07:39:20;12.25;;;11.05;;
47713;SDS011;33475;46.614;13.888;2023-10-19T07:41:48;14.73;;;12.05;;
47713;SDS011;33475;46.614;13.888;2023-10-19T07:44:14;7.45;;;6.60;;
47713;SDS011;33475;46.614;13.888;2023-10-19T07:46:40;9.18;;;7.30;;
47713;SDS011;33475;46.614;13.888;2023-10-19T07:49:07;15.15;;;8.90;;
47713;SDS011;33475;46.614;13.888;2023-10-19T07:51:33;9.77;;;8.77;;
47713;SDS011;33475;46.614;13.888;2023-10-19T07:53:59;13.52;;;9.50;;
47713;SDS011;33475;46.614;13.888;2023-10-19T07:56:26;9.65;;;8.15;;
47713;SDS011;33475;46.614;13.888;2023-10-19T07:58:53;8.43;;;6.07;;
47713;SDS011;33475;46.614;13.888;2023-10-19T08:01:20;9.68;;;8.77;;
47713;SDS011;33475;46.614;13.888;2023-10-19T08:03:47;16.23;;;8.68;;
47713;SDS011;33475;46.614;13.888;2023-10-19T08:06:14;12.25;;;7.43;;
47713;SDS011;33475;46.614;13.888;2023-10-19T08:08:40;9.55;;;7.00;;
47713;SDS011;33475;46.614;13.888;2023-10-19T08:11:07;6.35;;;5.70;;
47713;SDS011;33475;46.614;13.888;2023-10-19T08:13:33;9.80;;;6.32;;
47713;SDS011;33475;46.614;13.888;2023-10-19T08:15:59;8.15;;;6.20;;
47713;SDS011;33475;46.614;13.888;2023-10-19T08:18:26;7.72;;;5.05;;
47713;SDS011;33475;46.614;13.888;2023-10-19T08:20:52;7.10;;;6.40;;
47713;SDS011;33475;46.614;13.888;2023-10-19T08:23:18;7.80;;;5.70;;
47713;SDS011;33475;46.614;13.888;2023-10-19T08:25:48;10.02;;;8.00;;
47713;SDS011;33475;46.614;13.888;2023-10-19T08:28:16;12.85;;;5.88;;
47713;SDS011;33475;46.614;13.888;2023-10-19T08:30:42;11.10;;;6.63;;
47713;SDS011;33475;46.614;13.888;2023-10-19T08:33:10;9.07;;;6.10;;
47713;SDS011;33475;46.614;13.888;2023-10-19T08:35:39;8.73;;;5.20;;
47713;SDS011;33475;46.614;13.888;2023-10-19T08:38:05;12.20;;;5.90;;
47713;SDS011;33475;46.614;13.888;2023-10-19T08:40:36;9.38;;;5.40;;
47713;SDS011;33475;46.614;13.888;2023-10-19T08:43:03;13.55;;;5.68;;
47713;SDS011;33475;46.614;13.888;2023-10-19T08:45:30;9.98;;;6.18;;
47713;SDS011;33475;46.614;13.888;2023-10-19T08:47:59;12.93;;;10.70;;
47713;SDS011;33475;46.614;13.888;2023-10-19T08:50:30;6.93;;;5.50;;
47713;SDS011;33475;46.614;13.888;2023-10-19T08:52:57;9.00;;;7.22;;
47713;SDS011;33475;46.614;13.888;2023-10-19T08:55:24;10.68;;;6.03;;
47713;SDS011;33475;46.614;13.888;2023-10-19T08:57:51;14.70;;;6.07;;
47713;SDS011;33475;46.614;13.888;2023-10-19T09:00:18;6.18;;;5.53;;
47713;SDS011;33475;46.614;13.888;2023-10-19T09:02:45;11.15;;;7.10;;
47713;SDS011;33475;46.614;13.888;2023-10-19T09:05:11;15.40;;;8.55;;
47713;SDS011;33475;46.614;13.888;2023-10-19T09:07:48;8.57;;;6.97;;
47713;SDS011;33475;46.614;13.888;2023-10-19T09:13:00;13.25;;;7.85;;
47713;SDS011;33475;46.614;13.888;2023-10-19T09:15:27;12.93;;;7.32;;
47713;SDS011;33475;46.614;13.888;2023-10-19T09:17:55;12.95;;;6.25;;
47713;SDS011;33475;46.614;13.888;2023-10-19T09:20:22;9.20;;;6.50;;
47713;SDS011;33475;46.614;13.888;2023-10-19T09:22:54;9.38;;;7.68;;
47713;SDS011;33475;46.614;13.888;2023-10-19T09:25:23;16.38;;;8.52;;
47713;SDS011;33475;46.614;13.888;2023-10-19T09:27:50;10.43;;;5.95;;
47713;SDS011;33475;46.614;13.888;2023-10-19T09:30:17;10.23;;;5.50;;
47713;SDS011;33475;46.614;13.888;2023-10-19T09:32:46;9.70;;;4.65;;
47713;SDS011;33475;46.614;13.888;2023-10-19T09:35:16;7.40;;;6.60;;
47713;SDS011;33475;46.614;13.888;2023-10-19T09:37:44;9.95;;;6.68;;
47713;SDS011;33475;46.614;13.888;2023-10-19T09:40:10;12.13;;;8.60;;
47713;SDS011;33475;46.614;13.888;2023-10-19T09:42:42;7.40;;;5.90;;
47713;SDS011;33475;46.614;13.888;2023-10-19T09:45:13;8.85;;;6.00;;
47713;SDS011;33475;46.614;13.888;2023-10-19T09:47:44;12.45;;;7.40;;
47713;SDS011;33475;46.614;13.888;2023-10-19T09:50:12;16.60;;;12.02;;
47713;SDS011;33475;46.614;13.888;2023-10-19T09:52:39;17.60;;;11.57;;
47713;SDS011;33475;46.614;13.888;2023-10-19T09:55:19;9.65;;;6.07;;
47713;SDS011;33475;46.614;13.888;2023-10-19T09:57:52;6.20;;;5.18;;
47713;SDS011;33475;46.614;13.888;2023-10-19T10:00:19;6.47;;;5.30;;
47713;SDS011;33475;46.614;13.888;2023-10-19T10:02:48;5.93;;;5.32;;
47713;SDS011;33475;46.614;13.888;2023-10-19T10:10:48;6.38;;;5.78;;
47713;SDS011;33475;46.614;13.888;2023-10-19T10:13:57;10.30;;;5.30;;
47713;SDS011;33475;46.614;13.888;2023-10-19T10:16:04;8.07;;;7.28;;
47713;SDS011;33475;46.614;13.888;2023-10-19T10:18:30;7.07;;;4.90;;
47713;SDS011;33475;46.614;13.888;2023-10-19T10:21:14;8.57;;;6.03;;
47713;SDS011;33475;46.614;13.888;2023-10-19T10:23:47;10.65;;;5.40;;
47713;SDS011;33475;46.614;13.888;2023-10-19T10:26:14;6.13;;;5.30;;
47713;SDS011;33475;46.614;13.888;2023-10-19T10:28:41;7.38;;;4.85;;
47713;SDS011;33475;46.614;13.888;2023-10-19T10:31:15;9.32;;;5.45;;
47713;SDS011;33475;46.614;13.888;2023-10-19T10:33:42;13.53;;;4.73;;
47713;SDS011;33475;46.614;13.888;2023-10-19T10:36:13;5.95;;;4.90;;
47713;SDS011;33475;46.614;13.888;2023-10-19T10:38:39;6.72;;;5.10;;
47713;SDS011;33475;46.614;13.888;2023-10-19T10:41:06;6.85;;;5.05;;
47713;SDS011;33475;46.614;13.888;2023-10-19T10:43:51;6.22;;;5.10;;
47713;SDS011;33475;46.614;13.888;2023-10-19T10:46:21;8.18;;;4.75;;
47713;SDS011;33475;46.614;13.888;2023-10-19T10:48:48;13.13;;;4.60;;
47713;SDS011;33475;46.614;13.888;2023-10-19T10:51:18;7.72;;;5.45;;
47713;SDS011;33475;46.614;13.888;2023-10-19T10:53:51;15.35;;;5.43;;
47713;SDS011;33475;46.614;13.888;2023-10-19T10:56:18;7.22;;;4.90;;
47713;SDS011;33475;46.614;13.888;2023-10-19T10:58:44;8.25;;;4.75;;
47713;SDS011;33475;46.614;13.888;2023-10-19T11:01:10;14.15;;;4.45;;
47713;SDS011;33475;46.614;13.888;2023-10-19T11:03:38;12.95;;;4.78;;
47713;SDS011;33475;46.614;13.888;2023-10-19T11:06:05;7.78;;;4.90;;
47713;SDS011;33475;46.614;13.888;2023-10-19T11:08:33;10.30;;;4.30;;
47713;SDS011;33475;46.614;13.888;2023-10-19T11:11:17;12.32;;;4.10;;
47713;SDS011;33475;46.614;13.888;2023-10-19T11:13:43;6.97;;;4.10;;
47713;SDS011;33475;46.614;13.888;2023-10-19T11:16:10;9.65;;;4.25;;
47713;SDS011;33475;46.614;13.888;2023-10-19T11:18:37;3.95;;;3.60;;
47713;SDS011;33475;46.614;13.888;2023-10-19T11:21:15;4.80;;;3.85;;
47713;SDS011;33475;46.614;13.888;2023-10-19T11:23:50;12.25;;;4.25;;
47713;SDS011;33475;46.614;13.888;2023-10-19T11:26:19;5.22;;;3.70;;
47713;SDS011;33475;46.614;13.888;2023-10-19T11:28:46;5.53;;;3.10;;
47713;SDS011;33475;46.614;13.888;2023-10-19T11:31:21;4.65;;;3.50;;
47713;SDS011;33475;46.614;13.888;2023-10-19T11:33:48;7.63;;;3.55;;
47713;SDS011;33475;46.614;13.888;2023-10-19T11:36:15;4.45;;;3.50;;
47713;SDS011;33475;46.614;13.888;2023-10-19T11:38:42;11.02;;;3.03;;
47713;SDS011;33475;46.614;13.888;2023-10-19T11:41:09;6.82;;;3.33;;
47713;SDS011;33475;46.614;13.888;2023-10-19T11:43:35;9.48;;;3.60;;
47713;SDS011;33475;46.614;13.888;2023-10-19T11:46:02;10.63;;;3.17;;
47713;SDS011;33475;46.614;13.888;2023-10-19T11:48:35;4.40;;;3.03;;
47713;SDS011;33475;46.614;13.888;2023-10-19T11:51:02;3.47;;;2.85;;
47713;SDS011;33475;46.614;13.888;2023-10-19T11:53:32;3.13;;;2.72;;
47713;SDS011;33475;46.614;13.888;2023-10-19T11:56:09;4.90;;;3.00;;
47713;SDS011;33475;46.614;13.888;2023-10-19T11:58:37;6.72;;;2.92;;
47713;SDS011;33475;46.614;13.888;2023-10-19T12:01:05;4.45;;;3.08;;
47713;SDS011;33475;46.614;13.888;2023-10-19T12:03:37;14.27;;;3.17;;
47713;SDS011;33475;46.614;13.888;2023-10-19T12:06:05;5.70;;;3.00;;
47713;SDS011;33475;46.614;13.888;2023-10-19T12:08:32;5.70;;;2.83;;
47713;SDS011;33475;46.614;13.888;2023-10-19T12:10:59;6.43;;;2.70;;
47713;SDS011;33475;46.614;13.888;2023-10-19T12:13:42;5.07;;;2.80;;
47713;SDS011;33475;46.614;13.888;2023-10-19T12:16:09;9.77;;;2.67;;
47713;SDS011;33475;46.614;13.888;2023-10-19T12:18:38;5.30;;;1.75;;
47713;SDS011;33475;46.614;13.888;2023-10-19T12:21:04;3.88;;;2.20;;
47713;SDS011;33475;46.614;13.888;2023-10-19T12:23:38;8.85;;;2.45;;
47713;SDS011;33475;46.614;13.888;2023-10-19T12:26:05;4.90;;;2.35;;
47713;SDS011;33475;46.614;13.888;2023-10-19T12:28:39;4.28;;;2.30;;
47713;SDS011;33475;46.614;13.888;2023-10-19T12:31:06;6.43;;;2.22;;
47713;SDS011;33475;46.614;13.888;2023-10-19T12:33:36;5.85;;;2.65;;
47713;SDS011;33475;46.614;13.888;2023-10-19T12:36:03;5.50;;;2.50;;
47713;SDS011;33475;46.614;13.888;2023-10-19T12:38:48;3.97;;;2.45;;
47713;SDS011;33475;46.614;13.888;2023-10-19T12:41:16;6.95;;;2.30;;
47713;SDS011;33475;46.614;13.888;2023-10-19T12:43:43;3.65;;;2.60;;
47713;SDS011;33475;46.614;13.888;2023-10-19T12:46:10;8.88;;;3.55;;
47713;SDS011;33475;46.614;13.888;2023-10-19T12:48:38;8.27;;;2.22;;
47713;SDS011;33475;46.614;13.888;2023-10-19T12:51:04;3.80;;;1.85;;
47713;SDS011;33475;46.614;13.888;2023-10-19T12:53:37;6.85;;;2.65;;
47713;SDS011;33475;46.614;13.888;2023-10-19T12:56:06;8.00;;;2.70;;
47713;SDS011;33475;46.614;13.888;2023-10-19T12:58:35;3.00;;;1.73;;
47713;SDS011;33475;46.614;13.888;2023-10-19T13:01:02;1.85;;;1.50;;
47713;SDS011;33475;46.614;13.888;2023-10-19T13:03:30;4.95;;;1.58;;
47713;SDS011;33475;46.614;13.888;2023-10-19T13:05:57;3.85;;;1.63;;
47713;SDS011;33475;46.614;13.888;2023-10-19T13:08:24;5.03;;;1.85;;
47713;SDS011;33475;46.614;13.888;2023-10-19T13:10:53;5.78;;;1.63;;
47713;SDS011;33475;46.614;13.888;2023-10-19T13:13:19;4.25;;;1.50;;
47713;SDS011;33475;46.614;13.888;2023-10-19T13:15:49;10.93;;;1.48;;
47713;SDS011;33475;46.614;13.888;2023-10-19T13:18:15;1.90;;;1.42;;
47713;SDS011;33475;46.614;13.888;2023-10-19T13:20:46;8.73;;;1.60;;
47713;SDS011;33475;46.614;13.888;2023-10-19T13:23:13;4.47;;;1.38;;
47713;SDS011;33475;46.614;13.888;2023-10-19T13:25:46;3.65;;;1.70;;
47713;SDS011;33475;46.614;13.888;2023-10-19T13:28:23;1.95;;;1.30;;
47713;SDS011;33475;46.614;13.888;2023-10-19T13:30:51;2.65;;;1.20;;
47713;SDS011;33475;46.614;13.888;2023-10-19T13:33:21;3.05;;;1.60;;
47713;SDS011;33475;46.614;13.888;2023-10-19T13:35:49;3.53;;;1.52;;
47713;SDS011;33475;46.614;13.888;2023-10-19T13:38:15;6.85;;;1.77;;
47713;SDS011;33475;46.614;13.888;2023-10-19T13:40:42;4.90;;;1.95;;
47713;SDS011;33475;46.614;13.888;2023-10-19T13:43:10;5.03;;;1.83;;
47713;SDS011;33475;46.614;13.888;2023-10-19T13:45:39;3.13;;;1.90;;
47713;SDS011;33475;46.614;13.888;2023-10-19T13:48:07;2.17;;;1.73;;
47713;SDS011;33475;46.614;13.888;2023-10-19T13:50:34;2.42;;;1.80;;
47713;SDS011;33475;46.614;13.888;2023-10-19T13:53:02;2.17;;;1.95;;
47713;SDS011;33475;46.614;13.888;2023-10-19T13:55:30;2.92;;;2.10;;
47713;SDS011;33475;46.614;13.888;2023-10-19T13:57:57;8.82;;;1.70;;
47713;SDS011;33475;46.614;13.888;2023-10-19T14:00:23;3.70;;;2.05;;
47713;SDS011;33475;46.614;13.888;2023-10-19T14:02:55;3.53;;;1.88;;
47713;SDS011;33475;46.614;13.888;2023-10-19T14:05:22;4.63;;;1.92;;
47713;SDS011;33475;46.614;13.888;2023-10-19T14:07:51;4.90;;;3.83;;
47713;SDS011;33475;46.614;13.888;2023-10-19T14:10:18;4.68;;;4.20;;
47713;SDS011;33475;46.614;13.888;2023-10-19T14:12:45;5.47;;;2.35;;
47713;SDS011;33475;46.614;13.888;2023-10-19T14:15:13;9.52;;;2.88;;
47713;SDS011;33475;46.614;13.888;2023-10-19T14:17:40;16.27;;;2.83;;
47713;SDS011;33475;46.614;13.888;2023-10-19T14:20:07;15.80;;;3.20;;
47713;SDS011;33475;46.614;13.888;2023-10-19T14:22:38;7.65;;;2.63;;
47713;SDS011;33475;46.614;13.888;2023-10-19T14:25:05;6.15;;;2.20;;
47713;SDS011;33475;46.614;13.888;2023-10-19T14:27:33;8.57;;;2.35;;
47713;SDS011;33475;46.614;13.888;2023-10-19T14:30:00;10.32;;;3.20;;
47713;SDS011;33475;46.614;13.888;2023-10-19T14:32:26;14.13;;;2.40;;
47713;SDS011;33475;46.614;13.888;2023-10-19T14:34:52;8.18;;;2.35;;
47713;SDS011;33475;46.614;13.888;2023-10-19T14:37:19;19.77;;;8.43;;
47713;SDS011;33475;46.614;13.888;2023-10-19T14:39:45;16.52;;;8.52;;
47713;SDS011;33475;46.614;13.888;2023-10-19T14:42:11;10.65;;;5.78;;
47713;SDS011;33475;46.614;13.888;2023-10-19T14:44:37;8.25;;;3.13;;
47713;SDS011;33475;46.614;13.888;2023-10-19T14:47:05;10.48;;;3.92;;
47713;SDS011;33475;46.614;13.888;2023-10-19T14:49:31;5.50;;;2.75;;
47713;SDS011;33475;46.614;13.888;2023-10-19T14:51:58;6.90;;;3.30;;
47713;SDS011;33475;46.614;13.888;2023-10-19T14:54:24;6.00;;;3.10;;